createdAt,value
2024-02-18T00:01:04.060Z,63.44
2024-02-18T00:03:57.389Z,63.62
2024-02-18T00:06:30.254Z,63.65
2024-02-18T00:09:03.816Z,63.57
2024-02-18T00:11:36.617Z,63.53
2024-02-18T00:14:09.623Z,63.70
2024-02-18T00:16:42.692Z,63.59
2024-02-18T00:19:15.810Z,63.45
2024-02-18T00:21:48.810Z,63.59
2024-02-18T00:24:21.913Z,63.74
2024-02-18T00:26:58.727Z,63.62
2024-02-18T00:29:32.404Z,63.83
2024-02-18T00:32:05.603Z,63.95
2024-02-18T00:34:38.470Z,63.83
2024-02-18T00:37:11.406Z,63.64
2024-02-18T00:39:44.367Z,63.58
2024-02-18T00:42:17.342Z,63.65
2024-02-18T00:44:50.466Z,63.90
2024-02-18T00:47:23.404Z,63.92
2024-02-18T00:49:56.518Z,63.71
2024-02-18T00:52:29.375Z,63.72
2024-02-18T00:55:02.537Z,64.03
2024-02-18T00:57:35.702Z,63.80
2024-02-18T01:00:11.597Z,63.90
2024-02-18T01:02:43.101Z,64.00
2024-02-18T01:05:16.061Z,64.22
2024-02-18T01:07:49.481Z,64.26
2024-02-18T01:10:22.341Z,64.13
2024-02-18T01:12:55.375Z,64.13
2024-02-18T01:15:28.492Z,64.21
2024-02-18T01:18:01.646Z,64.10
2024-02-18T01:20:34.590Z,64.11
2024-02-18T01:23:07.527Z,64.32
2024-02-18T01:25:40.818Z,64.40
2024-02-18T01:28:13.984Z,64.38
2024-02-18T01:30:46.930Z,64.40
2024-02-18T01:33:21.722Z,64.52
2024-02-18T01:35:54.587Z,64.28
2024-02-18T01:38:27.320Z,64.41
2024-02-18T01:41:00.365Z,64.54
2024-02-18T01:43:33.954Z,64.57
2024-02-18T01:46:07.054Z,64.61
2024-02-18T01:48:40.520Z,64.59
2024-02-18T01:51:14.113Z,64.64
2024-02-18T01:53:47.261Z,64.71
2024-02-18T01:56:23.310Z,64.78
2024-02-18T01:58:54.513Z,64.87
2024-02-18T02:01:28.249Z,64.86
2024-02-18T02:04:01.138Z,64.92
2024-02-18T02:06:34.750Z,64.97
2024-02-18T02:09:08.395Z,65.01
2024-02-18T02:11:41.848Z,65.12
2024-02-18T02:14:14.956Z,65.08
2024-02-18T02:16:47.989Z,65.24
2024-02-18T02:19:23.566Z,65.22
2024-02-18T02:21:56.681Z,65.25
2024-02-18T02:24:29.783Z,65.32
2024-02-18T02:27:07.219Z,65.47
2024-02-18T02:29:40.296Z,65.38
2024-02-18T02:32:14.001Z,65.68
2024-02-18T02:34:47.189Z,65.46
2024-02-18T02:37:20.259Z,65.46
2024-02-18T02:39:53.393Z,65.43
2024-02-18T02:42:26.540Z,65.59
2024-02-18T02:44:59.667Z,65.84
2024-02-18T02:47:32.698Z,65.67
2024-02-18T02:50:06.097Z,65.60
2024-02-18T02:52:41.757Z,65.62
2024-02-18T02:55:15.268Z,65.58
2024-02-18T02:57:49.722Z,65.67
2024-02-18T03:00:23.576Z,65.79
2024-02-18T03:02:56.746Z,65.74
2024-02-18T03:05:30.010Z,65.93
2024-02-18T03:08:02.988Z,65.87
2024-02-18T03:10:38.469Z,65.91
2024-02-18T03:13:11.463Z,66.11
2024-02-18T03:15:44.546Z,65.93
2024-02-18T03:18:17.704Z,66.01
2024-02-18T03:20:50.866Z,66.04
2024-02-18T03:23:23.944Z,66.04
2024-02-18T03:25:56.910Z,66.17
2024-02-18T03:28:29.804Z,66.11
2024-02-18T03:31:02.860Z,66.15
2024-02-18T03:33:35.795Z,66.01
2024-02-18T03:36:09.205Z,66.06
2024-02-18T03:38:42.025Z,66.18
2024-02-18T03:41:15.033Z,66.09
2024-02-18T03:43:47.917Z,66.09
2024-02-18T03:46:20.650Z,66.21
2024-02-18T03:48:53.638Z,66.28
2024-02-18T03:51:26.669Z,66.27
2024-02-18T03:53:59.648Z,66.22
2024-02-18T03:56:37.396Z,66.25
2024-02-18T03:59:11.511Z,66.23
2024-02-18T04:01:44.498Z,66.16
2024-02-18T04:04:18.057Z,66.19
2024-02-18T04:06:51.165Z,66.21
2024-02-18T04:09:24.126Z,66.33
2024-02-18T04:11:57.928Z,66.24
2024-02-18T04:14:30.883Z,66.29
2024-02-18T04:17:04.540Z,66.49
2024-02-18T04:19:38.928Z,66.35
2024-02-18T04:22:12.418Z,66.37
2024-02-18T04:24:45.581Z,66.30
2024-02-18T04:27:19.201Z,66.43
2024-02-18T04:29:52.001Z,66.36
2024-02-18T04:32:25.820Z,66.32
2024-02-18T04:34:58.938Z,66.44
2024-02-18T04:37:31.998Z,66.50
2024-02-18T04:40:05.770Z,66.42
2024-02-18T04:42:38.938Z,66.32
2024-02-18T04:45:12.626Z,66.51
2024-02-18T04:47:45.748Z,66.42
2024-02-18T04:50:18.744Z,66.51
2024-02-18T04:52:51.862Z,66.61
2024-02-18T04:55:24.610Z,66.49
2024-02-18T04:57:57.385Z,66.63
2024-02-18T05:00:30.209Z,66.56
2024-02-18T05:03:02.998Z,66.38
2024-02-18T05:05:35.830Z,66.17
2024-02-18T05:08:09.846Z,66.20
2024-02-18T05:10:43.085Z,66.48
2024-02-18T05:13:15.869Z,66.49
2024-02-18T05:15:52.755Z,66.39
2024-02-18T05:18:26.154Z,66.45
2024-02-18T05:20:59.316Z,66.40
2024-02-18T05:23:32.360Z,66.41
2024-02-18T05:26:05.305Z,66.49
2024-02-18T05:28:38.166Z,66.39
2024-02-18T05:31:24.569Z,66.31
2024-02-18T05:33:57.621Z,66.31
2024-02-18T05:36:31.138Z,66.52
2024-02-18T05:39:04.381Z,66.55
2024-02-18T05:41:37.455Z,66.47
2024-02-18T05:44:11.016Z,66.29
2024-02-18T05:46:43.871Z,66.65
2024-02-18T05:49:17.491Z,66.52
2024-02-18T05:51:55.404Z,66.40
2024-02-18T05:54:29.956Z,66.38
2024-02-18T05:57:02.854Z,66.38
2024-02-18T05:59:35.868Z,66.46
2024-02-18T06:02:08.903Z,66.29
2024-02-18T06:04:41.861Z,66.36
2024-02-18T06:07:14.761Z,66.50
2024-02-18T06:09:47.928Z,66.32
2024-02-18T06:12:20.902Z,66.09
2024-02-18T06:14:53.801Z,66.30
2024-02-18T06:17:26.553Z,65.86
2024-02-18T06:20:00.530Z,66.00
2024-02-18T06:22:33.673Z,66.24
2024-02-18T06:25:07.175Z,65.88
2024-02-18T06:27:40.424Z,66.11
2024-02-18T06:30:15.097Z,66.05
2024-02-18T06:32:47.972Z,65.69
2024-02-18T06:35:20.949Z,65.88
2024-02-18T06:37:54.346Z,65.86
2024-02-18T06:40:27.760Z,65.64
2024-02-18T06:43:00.723Z,65.62
2024-02-18T06:45:33.611Z,65.63
2024-02-18T06:48:07.863Z,65.24
2024-02-18T06:50:41.200Z,65.18
2024-02-18T06:53:16.196Z,65.26
2024-02-18T06:55:49.201Z,65.16
2024-02-18T06:58:22.736Z,65.08
2024-02-18T07:00:55.802Z,64.70
2024-02-18T07:03:28.916Z,64.42
2024-02-18T07:06:01.966Z,64.11
2024-02-18T07:08:35.023Z,63.77
2024-02-18T07:11:08.345Z,63.43
2024-02-18T07:13:41.034Z,63.09
2024-02-18T07:16:14.086Z,62.89
2024-02-18T07:18:47.214Z,62.55
2024-02-18T07:21:20.197Z,62.44
2024-02-18T07:23:52.963Z,62.12
2024-02-18T07:26:26.265Z,62.08
2024-02-18T07:29:01.291Z,61.92
2024-02-18T07:31:38.464Z,61.68
2024-02-18T07:34:11.834Z,61.97
2024-02-18T07:36:45.071Z,61.86
2024-02-18T07:39:18.484Z,61.76
2024-02-18T07:41:51.510Z,61.89
2024-02-18T07:44:24.674Z,61.84
2024-02-18T07:46:58.912Z,61.69
2024-02-18T07:49:31.833Z,61.30
2024-02-18T07:52:04.830Z,61.46
2024-02-18T07:54:38.006Z,61.42
2024-02-18T07:57:10.993Z,61.72
2024-02-18T07:59:43.855Z,61.69
2024-02-18T08:02:16.728Z,61.75
2024-02-18T08:04:50.617Z,61.57
2024-02-18T08:07:25.098Z,61.55
2024-02-18T08:09:58.265Z,61.44
2024-02-18T08:12:31.349Z,61.65
2024-02-18T08:15:04.380Z,61.51
2024-02-18T08:17:37.466Z,61.53
2024-02-18T08:20:12.183Z,61.51
2024-02-18T08:22:45.615Z,61.30
2024-02-18T08:25:18.699Z,61.19
2024-02-18T08:27:51.518Z,61.10
2024-02-18T08:30:24.591Z,61.22
2024-02-18T08:32:57.730Z,60.99
2024-02-18T08:35:30.743Z,60.83
2024-02-18T08:38:03.551Z,60.98
2024-02-18T08:40:36.421Z,61.15
2024-02-18T08:43:09.849Z,61.07
2024-02-18T08:45:43.009Z,61.05
2024-02-18T08:48:16.091Z,61.38
2024-02-18T08:50:48.942Z,61.46
2024-02-18T08:53:23.038Z,61.67
2024-02-18T08:55:55.915Z,61.43
2024-02-18T08:58:29.003Z,61.87
2024-02-18T09:01:02.010Z,61.70
2024-02-18T09:03:35.303Z,61.85
2024-02-18T09:06:08.941Z,61.75
2024-02-18T09:08:43.141Z,62.07
2024-02-18T09:11:16.938Z,61.99
2024-02-18T09:13:50.095Z,62.13
2024-02-18T09:16:23.131Z,62.33
2024-02-18T09:18:56.074Z,62.40
2024-02-18T09:21:29.302Z,62.29
2024-02-18T09:24:02.175Z,62.13
2024-02-18T09:26:34.934Z,61.98
2024-02-18T09:29:08.537Z,61.99
2024-02-18T09:31:41.889Z,61.97
2024-02-18T09:34:15.368Z,62.08
2024-02-18T09:36:48.625Z,62.08
2024-02-18T09:39:21.610Z,62.18
2024-02-18T09:41:56.026Z,62.11
2024-02-18T09:44:30.839Z,61.94
2024-02-18T09:47:05.404Z,62.11
2024-02-18T09:49:39.800Z,62.12
2024-02-18T09:52:18.200Z,62.22
2024-02-18T09:54:52.879Z,62.47
2024-02-18T09:57:25.927Z,62.41
2024-02-18T09:59:58.892Z,62.10
2024-02-18T10:02:36.972Z,62.05
2024-02-18T10:05:12.683Z,62.18
2024-02-18T10:07:46.813Z,62.46
2024-02-18T10:10:19.932Z,62.48
2024-02-18T10:12:54.123Z,62.16
2024-02-18T10:15:27.303Z,62.19
2024-02-18T10:18:00.429Z,62.06
2024-02-18T10:20:33.777Z,62.34
2024-02-18T10:23:07.188Z,62.13
2024-02-18T10:25:41.333Z,62.12
2024-02-18T10:28:14.548Z,62.19
2024-02-18T10:30:47.651Z,62.21
2024-02-18T10:33:21.861Z,62.26
2024-02-18T10:35:57.892Z,61.96
2024-02-18T10:38:29.124Z,62.04
2024-02-18T10:41:05.962Z,61.96
2024-02-18T10:43:47.953Z,61.97
2024-02-18T10:46:25.158Z,62.09
2024-02-18T10:49:05.354Z,61.54
2024-02-18T10:51:42.085Z,61.76
2024-02-18T10:54:28.920Z,61.97
2024-02-18T10:57:04.813Z,61.69
2024-02-18T10:59:45.649Z,61.61
2024-02-18T11:02:25.197Z,61.29
2024-02-18T11:04:59.729Z,61.20
2024-02-18T11:07:33.823Z,61.14
2024-02-18T11:10:09.375Z,61.22
2024-02-18T11:12:46.264Z,61.37
2024-02-18T11:15:19.189Z,61.26
2024-02-18T11:17:52.897Z,61.05
2024-02-18T11:20:27.278Z,61.07
2024-02-18T11:23:01.976Z,61.28
2024-02-18T11:25:34.961Z,61.24
2024-02-18T11:28:09.282Z,61.06
2024-02-18T11:30:42.910Z,60.91
2024-02-18T11:33:20.454Z,60.80
2024-02-18T11:36:14.286Z,60.83
2024-02-18T11:38:48.171Z,60.80
2024-02-18T11:41:28.329Z,60.64
2024-02-18T11:44:08.094Z,60.57
2024-02-18T11:46:42.472Z,60.53
2024-02-18T11:49:15.689Z,60.61
2024-02-18T11:51:48.837Z,60.61
2024-02-18T11:54:21.827Z,60.55
2024-02-18T11:56:55.074Z,60.51
2024-02-18T11:59:29.346Z,60.49
2024-02-18T12:02:03.748Z,60.59
2024-02-18T12:04:39.936Z,60.26
2024-02-18T12:07:14.675Z,60.33
2024-02-18T12:09:47.967Z,60.48
2024-02-18T12:12:20.742Z,60.38
2024-02-18T12:14:57.536Z,60.38
2024-02-18T12:17:30.976Z,60.30
2024-02-18T12:20:08.109Z,60.35
2024-02-18T12:22:45.794Z,60.20
2024-02-18T12:25:19.261Z,60.10
2024-02-18T12:27:52.396Z,60.10
2024-02-18T12:30:25.543Z,60.10
2024-02-18T12:33:00.904Z,60.07
2024-02-18T12:35:35.221Z,59.97
2024-02-18T12:38:08.435Z,59.93
2024-02-18T12:40:41.518Z,59.91
2024-02-18T12:43:39.655Z,59.91
2024-02-18T12:46:09.955Z,59.64
2024-02-18T12:48:43.724Z,59.62
2024-02-18T12:51:18.600Z,59.63
2024-02-18T12:53:52.204Z,59.44
2024-02-18T12:56:25.855Z,59.52
2024-02-18T12:58:58.721Z,59.49
2024-02-18T13:01:32.477Z,59.49
2024-02-18T13:04:05.469Z,59.43
2024-02-18T13:06:38.713Z,59.22
2024-02-18T13:09:21.641Z,59.30
2024-02-18T13:11:54.775Z,59.12
2024-02-18T13:14:27.624Z,59.25
2024-02-18T13:17:00.633Z,59.25
2024-02-18T13:19:33.636Z,59.32
2024-02-18T13:22:06.970Z,59.26
2024-02-18T13:24:39.768Z,58.87
2024-02-18T13:27:12.723Z,59.03
2024-02-18T13:29:45.603Z,59.00
2024-02-18T13:32:18.609Z,58.99
2024-02-18T13:34:51.922Z,59.01
2024-02-18T13:37:25.099Z,58.93
2024-02-18T13:39:58.369Z,58.90
2024-02-18T13:42:31.334Z,58.89
2024-02-18T13:45:06.285Z,58.68
2024-02-18T13:47:39.490Z,58.58
2024-02-18T13:50:14.350Z,58.48
2024-02-18T13:52:47.502Z,58.52
2024-02-18T13:55:20.468Z,58.37
2024-02-18T13:57:53.487Z,58.40
2024-02-18T14:00:26.850Z,58.37
2024-02-18T14:03:00.548Z,58.26
2024-02-18T14:05:34.745Z,58.26
2024-02-18T14:08:09.030Z,58.28
2024-02-18T14:10:41.911Z,58.36
2024-02-18T14:13:15.154Z,58.30
2024-02-18T14:15:48.020Z,58.27
2024-02-18T14:18:20.780Z,58.25
2024-02-18T14:20:56.554Z,58.13
2024-02-18T14:23:30.567Z,57.97
2024-02-18T14:26:04.946Z,58.06
2024-02-18T14:28:38.057Z,58.05
2024-02-18T14:31:10.914Z,57.99
2024-02-18T14:33:44.101Z,57.97
2024-02-18T14:36:18.754Z,57.99
2024-02-18T14:38:52.788Z,57.94
2024-02-18T14:41:27.737Z,57.88
2024-02-18T14:44:00.687Z,57.97
2024-02-18T14:46:33.762Z,57.93
2024-02-18T14:49:06.748Z,57.92
2024-02-18T14:51:39.716Z,57.88
2024-02-18T14:54:12.648Z,57.91
2024-02-18T14:56:45.729Z,58.01
2024-02-18T14:59:19.422Z,57.99
2024-02-18T15:01:52.405Z,57.98
2024-02-18T15:04:25.107Z,57.99
2024-02-18T15:06:58.121Z,58.03
2024-02-18T15:09:33.903Z,58.06
2024-02-18T15:12:08.014Z,57.97
2024-02-18T15:14:41.428Z,58.04
2024-02-18T15:17:14.434Z,57.92
2024-02-18T15:19:54.389Z,57.96
2024-02-18T15:22:27.697Z,58.00
2024-02-18T15:25:00.615Z,57.95
2024-02-18T15:27:33.879Z,58.16
2024-02-18T15:30:08.624Z,58.08
2024-02-18T15:32:41.526Z,58.11
2024-02-18T15:35:16.426Z,58.18
2024-02-18T15:37:49.683Z,58.26
2024-02-18T15:40:23.010Z,58.21
2024-02-18T15:42:56.669Z,58.10
2024-02-18T15:45:29.876Z,58.10
2024-02-18T15:48:02.883Z,57.92
2024-02-18T15:50:37.158Z,57.95
2024-02-18T15:53:11.001Z,57.90
2024-02-18T15:55:53.544Z,57.86
2024-02-18T15:58:31.159Z,57.86
2024-02-18T16:01:05.068Z,58.04
2024-02-18T16:03:39.790Z,57.99
2024-02-18T16:06:13.055Z,58.02
2024-02-18T16:08:45.848Z,58.07
2024-02-18T16:11:18.794Z,58.10
2024-02-18T16:13:51.828Z,58.11
2024-02-18T16:16:25.016Z,58.13
2024-02-18T16:18:58.286Z,58.11
2024-02-18T16:21:31.358Z,58.22
2024-02-18T16:24:04.326Z,58.24
2024-02-18T16:26:37.422Z,58.29
2024-02-18T16:29:10.280Z,58.26
2024-02-18T16:31:43.305Z,58.42
2024-02-18T16:34:17.232Z,58.36
2024-02-18T16:36:50.621Z,58.45
2024-02-18T16:39:23.735Z,58.54
2024-02-18T16:41:56.879Z,58.44
2024-02-18T16:44:30.838Z,58.60
2024-02-18T16:47:04.792Z,58.48
2024-02-18T16:49:37.972Z,58.47
2024-02-18T16:52:11.063Z,58.74
2024-02-18T16:54:44.151Z,58.62
2024-02-18T16:57:17.149Z,58.72
2024-02-18T16:59:50.090Z,58.69
2024-02-18T17:02:23.101Z,58.80
2024-02-18T17:04:56.266Z,58.78
2024-02-18T17:07:29.144Z,58.74
2024-02-18T17:10:02.053Z,58.74
2024-02-18T17:12:35.142Z,58.74
2024-02-18T17:15:09.895Z,58.84
2024-02-18T17:17:42.630Z,58.83
2024-02-18T17:20:16.776Z,58.80
2024-02-18T17:22:49.940Z,58.92
2024-02-18T17:25:24.130Z,58.99
2024-02-18T17:27:57.369Z,58.78
2024-02-18T17:30:31.283Z,58.95
2024-02-18T17:33:04.874Z,58.90
2024-02-18T17:35:41.347Z,58.89
2024-02-18T17:38:14.350Z,58.98
2024-02-18T17:40:48.185Z,59.05
2024-02-18T17:43:22.970Z,58.87
2024-02-18T17:45:56.201Z,58.82
2024-02-18T17:48:29.243Z,58.78
2024-02-18T17:51:02.392Z,58.91
2024-02-18T17:53:35.241Z,58.91
2024-02-18T17:56:09.581Z,58.78
2024-02-18T17:58:43.578Z,58.92
2024-02-18T18:01:16.994Z,58.98
2024-02-18T18:03:52.985Z,58.90
2024-02-18T18:06:25.346Z,58.85
2024-02-18T18:08:58.297Z,59.00
2024-02-18T18:11:31.560Z,58.96
2024-02-18T18:14:04.599Z,58.86
2024-02-18T18:16:38.352Z,59.06
2024-02-18T18:19:13.083Z,58.98
2024-02-18T18:21:46.164Z,58.92
2024-02-18T18:24:19.025Z,59.04
2024-02-18T18:26:52.464Z,58.98
2024-02-18T18:29:25.908Z,59.02
2024-02-18T18:31:59.028Z,58.95
2024-02-18T18:34:33.627Z,59.04
2024-02-18T18:37:07.133Z,59.07
2024-02-18T18:39:42.997Z,59.09
2024-02-18T18:42:15.988Z,59.02
2024-02-18T18:44:53.248Z,59.19
2024-02-18T18:47:29.433Z,59.16
2024-02-18T18:50:03.787Z,59.18
2024-02-18T18:52:37.648Z,59.22
2024-02-18T18:55:14.824Z,59.28
2024-02-18T18:57:47.966Z,59.30
2024-02-18T19:00:22.960Z,59.30
2024-02-18T19:02:55.997Z,59.13
2024-02-18T19:05:29.864Z,59.07
2024-02-18T19:08:03.064Z,58.99
2024-02-18T19:10:36.813Z,59.00
2024-02-18T19:13:23.348Z,58.99
2024-02-18T19:16:04.282Z,58.83
2024-02-18T19:18:41.619Z,58.89
2024-02-18T19:21:14.721Z,58.94
2024-02-18T19:23:47.574Z,59.00
2024-02-18T19:26:24.429Z,58.97
2024-02-18T19:28:58.640Z,59.10
2024-02-18T19:31:31.612Z,59.02
2024-02-18T19:34:08.310Z,58.94
2024-02-18T19:36:44.041Z,58.93
2024-02-18T19:39:18.314Z,59.16
2024-02-18T19:41:51.428Z,59.00
2024-02-18T19:44:26.624Z,59.07
2024-02-18T19:47:00.074Z,59.12
2024-02-18T19:49:33.020Z,59.02
2024-02-18T19:52:06.674Z,58.94
2024-02-18T19:54:43.369Z,59.03
2024-02-18T19:57:18.728Z,59.04
2024-02-18T19:59:52.731Z,59.04
2024-02-18T20:02:25.803Z,59.18
2024-02-18T20:04:59.310Z,59.12
2024-02-18T20:07:32.333Z,59.14
2024-02-18T20:10:08.501Z,59.13
2024-02-18T20:12:41.453Z,59.20
2024-02-18T20:15:14.833Z,59.09
2024-02-18T20:17:47.705Z,59.06
2024-02-18T20:20:21.546Z,59.12
2024-02-18T20:22:55.011Z,59.19
2024-02-18T20:25:33.141Z,59.10
2024-02-18T20:28:06.494Z,59.12
2024-02-18T20:30:39.572Z,59.15
2024-02-18T20:33:13.077Z,59.13
2024-02-18T20:35:46.561Z,59.16
2024-02-18T20:38:19.569Z,59.05
2024-02-18T20:40:54.433Z,59.13
2024-02-18T20:43:27.468Z,59.17
2024-02-18T20:46:00.721Z,59.19
2024-02-18T20:48:33.637Z,59.28
2024-02-18T20:51:07.043Z,59.25
2024-02-18T20:53:40.519Z,59.22
2024-02-18T20:56:14.602Z,59.31
2024-02-18T20:58:47.625Z,59.15
2024-02-18T21:01:21.336Z,59.24
2024-02-18T21:03:54.513Z,59.24
2024-02-18T21:06:27.423Z,59.27
2024-02-18T21:09:00.397Z,59.48
2024-02-18T21:11:33.397Z,59.37
2024-02-18T21:14:06.452Z,59.32
2024-02-18T21:16:39.497Z,59.27
2024-02-18T21:19:12.424Z,59.17
2024-02-18T21:21:45.274Z,59.20
2024-02-18T21:24:18.080Z,59.24
2024-02-18T21:26:51.034Z,59.31
2024-02-18T21:29:23.936Z,59.27
2024-02-18T21:31:56.795Z,59.26
2024-02-18T21:34:29.858Z,59.30
2024-02-18T21:37:03.632Z,59.20
2024-02-18T21:39:44.276Z,59.22
2024-02-18T21:42:21.385Z,59.17
2024-02-18T21:44:54.250Z,59.14
2024-02-18T21:47:27.278Z,59.06
2024-02-18T21:50:00.319Z,59.06
2024-02-18T21:52:33.322Z,59.10
2024-02-18T21:55:06.992Z,59.04
2024-02-18T21:57:40.031Z,59.05
2024-02-18T22:00:15.111Z,59.08
2024-02-18T22:02:48.017Z,58.99
2024-02-18T22:05:21.067Z,58.96
2024-02-18T22:07:53.985Z,58.93
2024-02-18T22:10:27.269Z,58.85
2024-02-18T22:13:00.369Z,58.93
2024-02-18T22:15:33.387Z,58.97
2024-02-18T22:18:06.905Z,58.92
2024-02-18T22:20:40.082Z,58.89
2024-02-18T22:23:13.008Z,58.96
2024-02-18T22:25:45.956Z,58.96
2024-02-18T22:28:18.941Z,58.98
2024-02-18T22:30:52.244Z,58.90
2024-02-18T22:33:25.248Z,58.94
2024-02-18T22:35:58.190Z,58.94
2024-02-18T22:38:31.180Z,58.83
2024-02-18T22:41:04.167Z,58.78
2024-02-18T22:43:37.014Z,58.75
2024-02-18T22:46:10.571Z,58.70
2024-02-18T22:48:43.468Z,58.71
2024-02-18T22:51:16.227Z,58.59
2024-02-18T22:53:49.357Z,58.31
2024-02-18T22:56:22.080Z,58.04
2024-02-18T22:58:54.964Z,58.03
2024-02-18T23:01:31.791Z,58.06
2024-02-18T23:04:04.915Z,58.06
2024-02-18T23:06:37.863Z,58.00
2024-02-18T23:09:10.886Z,57.92
2024-02-18T23:11:43.706Z,58.12
2024-02-18T23:14:16.588Z,58.25
2024-02-18T23:16:49.901Z,58.31
2024-02-18T23:19:23.041Z,58.21
2024-02-18T23:21:56.212Z,58.36
2024-02-18T23:24:29.149Z,58.23
2024-02-18T23:27:01.819Z,58.27
2024-02-18T23:29:34.602Z,58.21
2024-02-18T23:32:09.909Z,58.11
2024-02-18T23:34:43.167Z,58.08
2024-02-18T23:37:16.527Z,58.26
2024-02-18T23:39:49.611Z,58.24
2024-02-18T23:42:22.599Z,58.15
2024-02-18T23:44:55.665Z,58.02
2024-02-18T23:47:30.050Z,58.00
2024-02-18T23:50:02.909Z,57.94
2024-02-18T23:52:35.953Z,57.75
2024-02-18T23:55:09.891Z,57.76
2024-02-18T23:57:43.130Z,57.61
